Time;durP1;ratioP1;P1;durP2;ratioP2;P2;SDS_P1;SDS_P2;PMS_P1;PMS_P2;Temp;Humidity;BMP_temperature;BMP_pressure;BME280_temperature;BME280_humidity;BME280_pressure;Samples;Min_cycle;Max_cycle;Signal;HPM_P1;HPM_P2
2021/04/06 00:00:42;;;;;;;0.83;0.83;;;4.00;99.90;;;;;;4984112;28;20211;-86
2021/04/06 00:03:13;;;;;;;2.97;0.97;;;3.90;99.90;;;;;;4984040;28;20245;-85
2021/04/06 00:05:40;;;;;;;1.70;0.90;;;4.00;99.90;;;;;;5002270;28;20223;-85
2021/04/06 00:08:09;;;;;;;3.30;0.53;;;4.00;99.90;;;;;;5004589;28;20179;-86
2021/04/06 00:10:34;;;;;;;1.20;1.10;;;4.10;99.90;;;;;;4987284;28;20242;-86
2021/04/06 00:13:01;;;;;;;2.10;1.17;;;4.00;99.90;;;;;;4997383;28;21378;-85
2021/04/06 00:15:28;;;;;;;4.60;2.17;;;3.70;99.90;;;;;;4988730;28;20220;-85
2021/04/06 00:17:57;;;;;;;4.67;1.70;;;3.60;99.90;;;;;;4986878;28;20319;-86
2021/04/06 00:20:24;;;;;;;0.97;0.73;;;3.70;99.90;;;;;;5002848;28;20199;-86
2021/04/06 00:22:51;;;;;;;2.93;1.37;;;3.70;99.90;;;;;;4987553;28;20234;-85
2021/04/06 00:25:21;;;;;;;0.20;0.20;;;3.80;99.90;;;;;;5004736;28;20269;-85
2021/04/06 00:27:50;;;;;;;3.00;0.87;;;3.80;99.90;;;;;;5004580;28;20302;-85
2021/04/06 00:30:22;;;;;;;4.90;1.27;;;3.80;99.90;;;;;;5004469;28;20763;-84
2021/04/06 00:32:54;;;;;;;0.77;0.77;;;3.90;99.90;;;;;;4988456;28;20245;-85
2021/04/06 00:35:27;;;;;;;2.20;0.93;;;3.80;99.90;;;;;;4989007;28;20175;-86
2021/04/06 00:37:54;;;;;;;1.23;1.13;;;3.80;99.90;;;;;;4995775;28;20823;-86
2021/04/06 00:40:21;;;;;;;0.30;0.30;;;3.80;99.90;;;;;;4987977;28;20338;-85
2021/04/06 00:42:47;;;;;;;1.10;0.60;;;4.00;99.90;;;;;;4971800;28;20246;-86
2021/04/06 00:45:16;;;;;;;1.17;0.93;;;4.00;99.90;;;;;;4965129;28;20219;-85
2021/04/06 00:47:43;;;;;;;1.17;1.07;;;3.90;99.90;;;;;;5004141;28;20207;-85
2021/04/06 00:50:14;;;;;;;1.30;1.20;;;3.90;99.90;;;;;;4989262;28;20206;-86
2021/04/06 00:52:44;;;;;;;1.10;0.93;;;3.90;99.90;;;;;;4988227;28;20230;-85
2021/04/06 00:55:16;;;;;;;2.00;0.77;;;3.80;99.90;;;;;;5001800;28;20210;-86
2021/04/06 00:57:43;;;;;;;1.50;0.97;;;3.90;99.90;;;;;;4979304;28;20330;-86
2021/04/06 01:00:26;;;;;;;1.03;0.47;;;4.00;99.90;;;;;;5003801;28;20211;-86
2021/04/06 01:03:12;;;;;;;0.87;0.87;;;4.10;99.90;;;;;;5004012;28;20254;-86
2021/04/06 01:06:00;;;;;;;1.80;0.60;;;4.10;99.90;;;;;;5004002;28;20207;-86
2021/04/06 01:08:31;;;;;;;0.33;0.33;;;4.00;99.90;;;;;;5006549;28;20184;-87
2021/04/06 01:10:59;;;;;;;1.10;0.43;;;4.00;99.90;;;;;;4988057;28;20237;-86
2021/04/06 01:13:25;;;;;;;0.63;0.53;;;4.00;99.90;;;;;;5005352;28;20219;-87
2021/04/06 01:15:51;;;;;;;1.17;0.83;;;3.90;99.90;;;;;;4970345;28;20227;-86
2021/04/06 01:18:17;;;;;;;2.70;1.40;;;4.00;99.90;;;;;;5005092;28;20321;-86
2021/04/06 01:20:44;;;;;;;0.63;0.63;;;4.00;99.90;;;;;;5002807;28;20191;-86
2021/04/06 01:23:11;;;;;;;1.30;0.80;;;3.80;99.90;;;;;;4997055;28;20196;-84
2021/04/06 01:25:49;;;;;;;4.70;1.53;;;3.80;99.90;;;;;;4986685;28;20227;-86
2021/04/06 01:28:14;;;;;;;4.73;1.67;;;3.80;99.90;;;;;;4985210;28;20207;-86
2021/04/06 01:30:45;;;;;;;0.63;0.63;;;3.80;99.90;;;;;;4987302;28;21094;-85
2021/04/06 01:33:21;;;;;;;6.03;0.87;;;3.80;99.90;;;;;;4986633;28;20298;-86
2021/04/06 01:35:49;;;;;;;0.73;0.63;;;3.90;99.90;;;;;;5003353;28;20854;-86
2021/04/06 01:38:16;;;;;;;3.77;1.10;;;3.80;99.90;;;;;;4988807;28;20232;-87
2021/04/06 01:40:42;;;;;;;0.50;0.50;;;4.00;99.90;;;;;;4965565;28;20261;-85
2021/04/06 01:43:11;;;;;;;0.93;0.60;;;4.10;99.90;;;;;;4986332;28;20241;-87
2021/04/06 01:45:45;;;;;;;12.50;1.87;;;4.20;99.90;;;;;;4986867;28;20337;-87
2021/04/06 01:48:14;;;;;;;4.03;1.03;;;3.90;99.90;;;;;;5004124;28;20226;-86
2021/04/06 01:50:51;;;;;;;5.43;1.17;;;3.90;99.90;;;;;;4961921;28;20187;-85
2021/04/06 01:53:18;;;;;;;3.10;1.00;;;3.70;99.90;;;;;;5003651;28;20187;-86
2021/04/06 01:55:51;;;;;;;0.43;0.43;;;3.70;99.90;;;;;;4966874;28;20254;-87
2021/04/06 01:58:18;;;;;;;0.73;0.70;;;3.70;99.90;;;;;;4967473;28;20238;-86
2021/04/06 02:03:37;;;;;;;0.70;0.70;;;3.70;99.90;;;;;;4974099;28;20249;-86
2021/04/06 02:06:03;;;;;;;1.03;0.77;;;3.70;99.90;;;;;;4984737;28;20223;-86
2021/04/06 02:08:31;;;;;;;0.50;0.50;;;3.70;99.90;;;;;;4968768;28;20800;-85
2021/04/06 02:10:57;;;;;;;0.67;0.57;;;3.70;99.90;;;;;;4981776;28;20199;-85
2021/04/06 02:13:23;;;;;;;1.17;0.87;;;3.60;99.90;;;;;;4969476;28;20558;-85
2021/04/06 02:15:59;;;;;;;0.30;0.30;;;3.60;99.90;;;;;;4963658;28;21211;-85
2021/04/06 02:18:27;;;;;;;1.03;0.77;;;3.60;99.90;;;;;;4985171;28;20215;-85
2021/04/06 02:20:59;;;;;;;0.87;0.87;;;3.70;99.90;;;;;;4985375;28;20219;-86
2021/04/06 02:23:26;;;;;;;2.57;0.70;;;3.60;99.90;;;;;;5003550;28;20179;-85
2021/04/06 02:25:56;;;;;;;0.40;0.40;;;3.60;99.90;;;;;;4983187;28;20219;-86
2021/04/06 02:28:23;;;;;;;0.30;0.30;;;3.60;99.90;;;;;;4985567;28;20223;-85
2021/04/06 02:31:00;;;;;;;2.03;0.70;;;3.60;99.90;;;;;;4986566;28;20390;-85
2021/04/06 02:33:37;;;;;;;0.60;0.60;;;3.70;99.90;;;;;;4985120;28;20219;-87
2021/04/06 02:36:08;;;;;;;0.50;0.50;;;3.60;99.90;;;;;;4985351;28;20722;-86
2021/04/06 02:38:38;;;;;;;1.50;0.90;;;3.60;99.90;;;;;;4981150;28;20179;-87
2021/04/06 02:41:09;;;;;;;0.30;0.30;;;3.60;99.90;;;;;;4985824;28;20353;-86
2021/04/06 02:43:53;;;;;;;0.47;0.47;;;3.70;99.90;;;;;;5005245;28;21014;-86
2021/04/06 02:46:25;;;;;;;0.63;0.63;;;3.70;99.90;;;;;;4985885;28;20245;-85
2021/04/06 02:48:53;;;;;;;0.30;0.30;;;3.80;99.90;;;;;;5004615;28;20225;-87
2021/04/06 02:51:19;;;;;;;10.00;0.63;;;3.80;99.90;;;;;;5001675;28;20223;-86
2021/04/06 02:53:53;;;;;;;1.23;1.13;;;3.60;99.90;;;;;;4962919;28;20183;-87
2021/04/06 02:56:33;;;;;;;0.47;0.47;;;3.50;99.90;;;;;;5004159;28;20219;-86
2021/04/06 02:59:16;;;;;;;1.80;1.27;;;3.40;99.90;;;;;;4986012;28;20250;-86
2021/04/06 03:01:50;;;;;;;0.40;0.40;;;3.60;99.90;;;;;;4961804;28;20218;-85
2021/04/06 03:04:23;;;;;;;0.87;0.87;;;3.80;99.90;;;;;;4978645;28;20227;-86
2021/04/06 03:06:53;;;;;;;0.80;0.80;;;3.80;99.90;;;;;;5003268;28;20842;-87
2021/04/06 03:09:22;;;;;;;0.20;0.20;;;2.90;99.90;;;;;;4951744;28;20211;-86
2021/04/06 03:11:51;;;;;;;0.53;0.40;;;2.60;99.90;;;;;;5003008;28;20231;-87
2021/04/06 03:14:20;;;;;;;0.30;0.30;;;2.40;99.90;;;;;;5003978;28;20549;-86
2021/04/06 03:16:49;;;;;;;0.47;0.47;;;2.60;99.90;;;;;;5003310;28;20273;-86
2021/04/06 03:19:15;;;;;;;1.00;0.67;;;2.70;99.90;;;;;;4984192;28;20215;-86
2021/04/06 03:21:41;;;;;;;0.73;0.73;;;3.00;99.90;;;;;;4968548;28;20727;-86
2021/04/06 03:24:12;;;;;;;1.70;0.53;;;3.10;99.90;;;;;;4985479;28;20253;-85
2021/04/06 03:26:39;;;;;;;2.37;1.57;;;3.00;99.90;;;;;;4951962;28;20183;-86
2021/04/06 03:29:05;;;;;;;0.30;0.30;;;2.90;99.90;;;;;;4963305;28;20191;-89
2021/04/06 03:31:33;;;;;;;0.60;0.60;;;2.80;99.90;;;;;;4968993;28;20240;-85
2021/04/06 03:34:00;;;;;;;1.80;0.50;;;2.90;99.90;;;;;;4985133;28;20242;-85
2021/04/06 03:36:31;;;;;;;4.23;0.70;;;3.10;99.90;;;;;;4983787;28;20238;-87
2021/04/06 03:39:05;;;;;;;3.17;1.00;;;3.10;99.90;;;;;;4978376;28;20234;-85
2021/04/06 03:41:33;;;;;;;1.83;0.90;;;3.00;99.90;;;;;;4995202;28;20227;-86
2021/04/06 03:44:10;;;;;;;0.30;0.30;;;3.00;99.90;;;;;;5003950;28;20187;-87
2021/04/06 03:46:38;;;;;;;0.40;0.40;;;2.90;99.90;;;;;;4984482;28;20219;-85
2021/04/06 03:49:15;;;;;;;0.50;0.50;;;2.90;99.90;;;;;;5002688;28;20219;-85
2021/04/06 03:51:52;;;;;;;0.70;0.70;;;2.90;99.90;;;;;;4984657;28;20789;-86
2021/04/06 03:54:43;;;;;;;0.40;0.40;;;2.90;99.90;;;;;;4983340;28;20799;-88
2021/04/06 03:57:38;;;;;;;0.83;0.83;;;3.10;99.90;;;;;;5000207;28;20261;-87
2021/04/06 04:00:06;;;;;;;0.97;0.53;;;2.90;99.90;;;;;;5003105;28;20218;-87
2021/04/06 04:02:32;;;;;;;0.50;0.50;;;2.50;99.90;;;;;;5003083;28;20207;-85
2021/04/06 04:04:58;;;;;;;4.17;1.17;;;2.30;99.90;;;;;;4986255;28;20277;-86
2021/04/06 04:07:23;;;;;;;0.30;0.30;;;2.10;99.90;;;;;;4951045;28;20227;-86
2021/04/06 04:09:49;;;;;;;0.57;0.57;;;2.00;99.90;;;;;;4975623;28;20219;-86
2021/04/06 04:12:15;;;;;;;0.83;0.77;;;2.20;99.90;;;;;;4977244;28;20300;-87
2021/04/06 04:14:40;;;;;;;0.63;0.63;;;2.20;99.90;;;;;;4950649;28;20187;-86
2021/04/06 04:17:07;;;;;;;0.27;0.27;;;2.30;99.90;;;;;;4968444;28;20227;-87
2021/04/06 04:19:34;;;;;;;0.57;0.57;;;2.20;99.90;;;;;;4984201;28;20223;-86
2021/04/06 04:22:00;;;;;;;0.30;0.30;;;2.20;99.90;;;;;;4983931;28;20242;-87
2021/04/06 04:24:25;;;;;;;0.27;0.27;;;2.20;99.90;;;;;;5000362;28;20835;-86
2021/04/06 04:26:51;;;;;;;1.77;0.90;;;2.30;99.90;;;;;;4982189;28;20799;-86
2021/04/06 04:29:17;;;;;;;0.40;0.40;;;2.40;99.90;;;;;;4985010;28;20222;-88
2021/04/06 04:31:45;;;;;;;0.93;0.67;;;2.40;99.90;;;;;;4951799;28;20266;-85
2021/04/06 04:34:11;;;;;;;0.40;0.40;;;2.50;99.90;;;;;;5002840;28;20273;-86
2021/04/06 04:36:37;;;;;;;0.30;0.30;;;2.50;99.90;;;;;;4977472;28;20235;-87
2021/04/06 04:39:04;;;;;;;0.50;0.50;;;2.70;99.90;;;;;;4966695;28;21213;-85
2021/04/06 04:41:30;;;;;;;0.30;0.30;;;2.80;99.90;;;;;;4966410;28;20236;-84
2021/04/06 04:43:56;;;;;;;10.43;0.60;;;2.70;99.90;;;;;;4953206;28;20685;-86
2021/04/06 04:46:25;;;;;;;0.40;0.40;;;2.50;99.90;;;;;;4985669;28;20219;-86
2021/04/06 04:48:51;;;;;;;0.30;0.30;;;2.30;99.90;;;;;;4967302;28;20223;-86
2021/04/06 04:51:16;;;;;;;0.40;0.40;;;2.30;99.90;;;;;;4968380;28;20211;-86
2021/04/06 04:53:42;;;;;;;0.30;0.30;;;2.30;99.90;;;;;;4951562;28;20257;-86
2021/04/06 04:56:08;;;;;;;0.30;0.30;;;2.30;99.90;;;;;;4996340;28;20459;-85
2021/04/06 04:58:34;;;;;;;0.67;0.67;;;2.40;99.90;;;;;;4983335;28;20548;-86
2021/04/06 05:00:59;;;;;;;0.30;0.30;;;2.50;99.90;;;;;;4971164;28;20267;-86
2021/04/06 05:03:25;;;;;;;0.30;0.30;;;2.60;99.90;;;;;;4954904;28;20218;-86
2021/04/06 05:05:51;;;;;;;0.70;0.70;;;2.70;99.90;;;;;;4954738;28;20226;-85
2021/04/06 05:08:17;;;;;;;4.00;1.10;;;2.80;99.90;;;;;;4969695;28;20211;-85
2021/04/06 05:10:42;;;;;;;0.97;0.60;;;3.00;99.90;;;;;;4954747;28;20810;-85
2021/04/06 05:13:08;;;;;;;1.10;1.10;;;3.10;99.90;;;;;;4969461;28;20293;-85
2021/04/06 05:15:34;;;;;;;1.47;1.37;;;3.00;99.90;;;;;;4970260;28;20321;-85
2021/04/06 05:18:00;;;;;;;0.40;0.40;;;2.70;99.90;;;;;;4970664;28;20225;-85
2021/04/06 05:20:26;;;;;;;0.30;0.30;;;2.60;99.90;;;;;;4988236;28;20490;-84
2021/04/06 05:22:51;;;;;;;0.20;0.20;;;2.60;99.90;;;;;;4970430;28;20743;-85
2021/04/06 05:25:17;;;;;;;0.70;0.70;;;2.60;99.90;;;;;;4953764;28;21000;-85
2021/04/06 05:27:44;;;;;;;0.30;0.30;;;2.60;99.90;;;;;;4989214;28;20234;-87
2021/04/06 05:30:10;;;;;;;2.80;1.70;;;2.70;99.90;;;;;;4969110;28;20235;-84
2021/04/06 05:32:36;;;;;;;0.70;0.70;;;2.70;99.90;;;;;;4970265;28;20688;-85
2021/04/06 05:35:03;;;;;;;0.83;0.83;;;2.60;99.90;;;;;;5006359;28;20242;-86
2021/04/06 05:37:28;;;;;;;0.30;0.30;;;2.70;99.90;;;;;;4969824;28;20235;-85
2021/04/06 05:39:54;;;;;;;0.40;0.40;;;2.70;99.90;;;;;;4951277;28;20708;-85
2021/04/06 05:42:21;;;;;;;0.27;0.27;;;2.80;99.90;;;;;;4969063;28;20314;-84
2021/04/06 05:44:46;;;;;;;0.30;0.30;;;3.00;99.90;;;;;;5001588;28;20226;-85
2021/04/06 05:47:34;;;;;;;1.80;0.73;;;3.20;99.90;;;;;;4970694;28;20203;-85
2021/04/06 05:50:02;;;;;;;0.60;0.60;;;2.90;99.90;;;;;;4994743;28;20223;-85
2021/04/06 05:52:30;;;;;;;2.40;2.20;;;2.00;99.90;;;;;;4985255;28;20227;-85
2021/04/06 05:54:58;;;;;;;0.47;0.47;;;1.70;99.90;;;;;;4977366;28;20211;-85
2021/04/06 05:57:27;;;;;;;0.50;0.50;;;1.50;99.90;;;;;;4969606;28;20223;-85
2021/04/06 05:59:53;;;;;;;0.40;0.40;;;1.50;99.90;;;;;;5002277;28;20225;-85
2021/04/06 06:02:19;;;;;;;0.40;0.40;;;1.70;99.90;;;;;;4971291;28;20196;-85
2021/04/06 06:04:45;;;;;;;1.80;0.50;;;1.80;99.90;;;;;;4986898;28;20207;-85
2021/04/06 06:07:13;;;;;;;0.30;0.30;;;1.80;99.90;;;;;;4985891;28;20591;-85
2021/04/06 06:09:39;;;;;;;0.97;0.97;;;2.00;99.90;;;;;;4986834;28;20227;-86
2021/04/06 06:12:09;;;;;;;0.50;0.50;;;2.20;99.90;;;;;;5003794;28;20230;-85
2021/04/06 06:14:34;;;;;;;0.40;0.40;;;2.30;99.90;;;;;;5001319;28;20678;-86
2021/04/06 06:17:27;;;;;;;0.97;0.97;;;2.30;99.90;;;;;;4996288;28;20958;-86
2021/04/06 06:19:55;;;;;;;0.40;0.40;;;2.30;99.90;;;;;;4999592;28;20261;-85
2021/04/06 06:22:31;;;;;;;0.20;0.20;;;2.20;99.90;;;;;;5003215;28;20546;-86
2021/04/06 06:25:08;;;;;;;0.67;0.60;;;2.10;99.90;;;;;;4983317;28;20273;-85
2021/04/06 06:27:42;;;;;;;0.30;0.30;;;1.90;99.90;;;;;;4979227;28;20372;-86
2021/04/06 06:30:30;;;;;;;0.30;0.30;;;1.90;99.90;;;;;;4990243;28;20227;-88
2021/04/06 06:33:17;;;;;;;0.37;0.37;;;2.00;99.90;;;;;;4990395;28;20230;-87
2021/04/06 06:35:46;;;;;;;0.80;0.63;;;2.00;99.90;;;;;;4976725;28;20191;-86
2021/04/06 06:38:18;;;;;;;0.30;0.30;;;2.00;99.90;;;;;;4985054;28;20564;-86
2021/04/06 06:40:45;;;;;;;0.30;0.30;;;2.20;99.90;;;;;;4996288;28;20247;-86
2021/04/06 06:43:16;;;;;;;0.40;0.40;;;2.40;99.90;;;;;;4984828;28;20215;-85
2021/04/06 06:45:42;;;;;;;1.63;1.43;;;2.50;99.90;;;;;;4984412;28;20273;-83
2021/04/06 06:48:08;;;;;;;0.40;0.40;;;2.60;99.90;;;;;;5001642;28;20234;-85
2021/04/06 06:50:48;;;;;;;0.30;0.30;;;1.70;99.90;;;;;;4984212;28;20202;-85
2021/04/06 06:53:33;;;;;;;0.37;0.37;;;1.20;99.90;;;;;;4994455;28;20314;-85
2021/04/06 06:55:59;;;;;;;1.03;0.50;;;1.20;99.90;;;;;;4984769;28;20338;-84
2021/04/06 06:58:33;;;;;;;0.40;0.40;;;1.30;99.90;;;;;;4966570;28;20235;-85
2021/04/06 07:01:00;;;;;;;0.33;0.33;;;1.40;99.90;;;;;;4998029;28;20312;-87
2021/04/06 07:03:26;;;;;;;0.33;0.33;;;1.60;99.90;;;;;;5002078;28;20246;-82
2021/04/06 07:05:52;;;;;;;2.00;1.90;;;1.80;99.90;;;;;;4968925;28;20689;-84
2021/04/06 07:08:33;;;;;;;0.50;0.50;;;1.90;99.90;;;;;;4980540;28;20274;-85
2021/04/06 07:11:00;;;;;;;0.40;0.40;;;2.00;99.90;;;;;;4985829;28;20292;-86
2021/04/06 07:13:32;;;;;;;0.40;0.40;;;2.10;99.90;;;;;;4984222;28;20265;-88
2021/04/06 07:15:59;;;;;;;0.50;0.50;;;2.20;99.90;;;;;;4998139;28;20377;-87
2021/04/06 07:18:27;;;;;;;1.40;1.10;;;2.30;99.90;;;;;;4982803;28;20246;-88
2021/04/06 07:20:59;;;;;;;0.87;0.60;;;2.40;99.90;;;;;;5003796;28;20227;-85
2021/04/06 07:23:58;;;;;;;0.30;0.30;;;2.00;99.90;;;;;;5003935;28;20211;-84
2021/04/06 07:26:25;;;;;;;0.30;0.30;;;1.70;99.90;;;;;;5000787;28;20222;-85
2021/04/06 07:28:52;;;;;;;0.67;0.67;;;1.80;99.90;;;;;;4968212;28;20238;-86
2021/04/06 07:31:18;;;;;;;0.30;0.30;;;2.00;99.90;;;;;;5000574;28;20261;-86
2021/04/06 07:33:47;;;;;;;0.67;0.40;;;2.10;99.90;;;;;;5002176;28;20234;-85
2021/04/06 07:36:20;;;;;;;0.33;0.33;;;2.10;99.90;;;;;;4984343;28;21291;-84
2021/04/06 07:38:49;;;;;;;0.30;0.30;;;2.10;99.90;;;;;;5002074;28;20238;-86
2021/04/06 07:41:21;;;;;;;0.20;0.20;;;2.20;99.90;;;;;;5003441;28;21062;-87
2021/04/06 07:43:49;;;;;;;0.53;0.53;;;2.20;99.90;;;;;;4982848;28;20314;-84
2021/04/06 07:46:50;;;;;;;0.30;0.30;;;2.30;99.90;;;;;;4983635;28;20223;-86
2021/04/06 07:49:21;;;;;;;0.80;0.80;;;2.30;99.90;;;;;;4926873;28;20223;-84
2021/04/06 07:51:53;;;;;;;0.30;0.30;;;2.30;99.90;;;;;;4976592;28;20290;-84
2021/04/06 07:54:24;;;;;;;0.67;0.67;;;2.10;99.90;;;;;;4983885;28;20227;-86
2021/04/06 07:56:51;;;;;;;0.40;0.40;;;2.00;99.90;;;;;;4984048;28;20234;-85
2021/04/06 07:59:20;;;;;;;4.27;0.70;;;2.00;99.90;;;;;;4984951;28;20183;-84
2021/04/06 08:02:05;;;;;;;0.50;0.50;;;2.00;99.90;;;;;;4999981;28;20238;-85
2021/04/06 08:04:37;;;;;;;0.30;0.30;;;2.10;99.90;;;;;;4992335;28;20281;-87
2021/04/06 08:07:22;;;;;;;0.30;0.30;;;2.60;99.90;;;;;;4983759;28;20227;-86
2021/04/06 08:09:55;;;;;;;0.30;0.30;;;4.10;99.90;;;;;;5000054;28;20219;-87
2021/04/06 08:12:35;;;;;;;0.50;0.50;;;6.30;99.90;;;;;;4967043;28;20238;-87
2021/04/06 08:15:12;;;;;;;1.43;0.50;;;7.30;99.90;;;;;;4992983;28;20689;-86
2021/04/06 08:17:44;;;;;;;0.30;0.30;;;5.70;99.90;;;;;;4984000;28;20214;-86
2021/04/06 08:20:18;;;;;;;1.60;0.50;;;4.00;99.90;;;;;;4978395;28;20190;-85
2021/04/06 08:22:48;;;;;;;0.30;0.30;;;3.00;99.90;;;;;;4983402;28;20254;-86
2021/04/06 08:25:23;;;;;;;0.60;0.40;;;2.60;99.90;;;;;;4983040;28;20215;-88
2021/04/06 08:27:54;;;;;;;0.30;0.30;;;2.60;99.90;;;;;;4990798;28;20266;-85
2021/04/06 08:30:22;;;;;;;0.40;0.40;;;2.60;99.90;;;;;;4961628;28;20207;-88
2021/04/06 08:32:57;;;;;;;0.30;0.30;;;2.50;99.90;;;;;;4983863;28;20281;-87
2021/04/06 08:35:48;;;;;;;1.33;1.33;;;2.50;99.90;;;;;;5002419;28;20919;-87
2021/04/06 08:38:37;;;;;;;0.30;0.30;;;2.60;99.90;;;;;;5006053;28;20249;-87
2021/04/06 08:41:22;;;;;;;3.13;0.70;;;2.70;99.90;;;;;;4988404;28;20806;-85
2021/04/06 08:43:55;;;;;;;0.40;0.40;;;3.00;99.90;;;;;;4977217;28;20227;-86
2021/04/06 08:46:48;;;;;;;0.43;0.43;;;3.80;99.90;;;;;;4986698;28;20216;-86
2021/04/06 08:49:15;;;;;;;0.50;0.50;;;5.40;99.90;;;;;;4985643;28;20249;-86
2021/04/06 08:51:49;;;;;;;0.70;0.70;;;6.80;99.90;;;;;;4984758;28;20236;-85
2021/04/06 08:54:16;;;;;;;0.30;0.30;;;8.20;99.90;;;;;;4969071;28;20252;-86
2021/04/06 08:56:47;;;;;;;0.20;0.20;;;9.00;99.90;;;;;;4984484;28;20294;-87
2021/04/06 08:59:33;;;;;;;0.60;0.40;;;8.20;99.90;;;;;;4986697;28;20188;-85
2021/04/06 09:02:09;;;;;;;0.30;0.30;;;6.70;99.90;;;;;;4984211;28;20319;-83
2021/04/06 09:04:40;;;;;;;0.30;0.30;;;6.10;99.90;;;;;;4976056;28;20215;-84
2021/04/06 09:07:32;;;;;;;0.40;0.40;;;5.70;99.90;;;;;;4962497;28;20242;-83
2021/04/06 09:10:00;;;;;;;4.90;0.93;;;4.90;99.90;;;;;;4983441;28;20224;-83
2021/04/06 09:12:26;;;;;;;0.40;0.40;;;4.30;99.90;;;;;;4983987;28;20582;-85
2021/04/06 09:14:54;;;;;;;4.90;0.70;;;5.10;99.90;;;;;;4983126;28;20220;-82
2021/04/06 09:17:26;;;;;;;0.70;0.70;;;5.80;99.90;;;;;;4984465;28;20285;-83
2021/04/06 09:19:52;;;;;;;0.57;0.57;;;6.40;99.90;;;;;;4983715;28;20298;-83
2021/04/06 09:22:18;;;;;;;0.73;0.50;;;6.00;99.90;;;;;;4983831;28;20286;-84
2021/04/06 09:24:45;;;;;;;0.30;0.30;;;6.20;99.90;;;;;;4967361;28;20230;-83
2021/04/06 09:27:11;;;;;;;1.90;0.80;;;6.50;99.90;;;;;;4966127;28;21105;-83
2021/04/06 09:29:42;;;;;;;0.30;0.30;;;5.80;99.90;;;;;;4968067;28;20196;-83
2021/04/06 09:32:11;;;;;;;0.47;0.47;;;5.90;99.90;;;;;;4993892;28;20192;-88
2021/04/06 09:34:39;;;;;;;1.70;0.90;;;6.20;99.90;;;;;;4982781;28;20303;-86
2021/04/06 09:37:11;;;;;;;1.60;1.03;;;5.70;99.90;;;;;;4979898;28;20251;-87
2021/04/06 09:39:40;;;;;;;7.10;0.80;;;5.20;99.90;;;;;;4996865;28;20703;-84
2021/04/06 09:42:07;;;;;;;0.30;0.30;;;5.90;99.90;;;;;;4982389;28;20227;-85
2021/04/06 09:44:38;;;;;;;0.53;0.40;;;6.00;99.90;;;;;;4982743;28;20215;-84
2021/04/06 09:47:26;;;;;;;0.40;0.40;;;6.80;99.90;;;;;;4992632;28;20191;-83
2021/04/06 09:49:53;;;;;;;0.97;0.70;;;7.00;99.90;;;;;;4998666;28;20224;-83
2021/04/06 09:52:28;;;;;;;0.30;0.30;;;6.00;99.90;;;;;;4982688;28;20419;-84
2021/04/06 09:55:07;;;;;;;0.30;0.30;;;6.90;99.90;;;;;;4999547;28;20208;-84
2021/04/06 09:57:42;;;;;;;0.70;0.70;;;6.10;99.90;;;;;;4980961;28;20239;-86
2021/04/06 10:00:30;;;;;;;2.37;0.73;;;4.90;99.90;;;;;;4983713;28;20216;-84
2021/04/06 10:03:18;;;;;;;0.47;0.47;;;4.10;99.90;;;;;;4980802;28;20254;-91
2021/04/06 10:05:45;;;;;;;1.80;0.80;;;3.80;99.90;;;;;;4980112;28;20250;-91
2021/04/06 10:08:26;;;;;;;0.33;0.33;;;3.70;99.90;;;;;;4980745;28;20188;-93
2021/04/06 10:10:52;;;;;;;0.40;0.40;;;3.90;99.90;;;;;;4984206;28;20223;-90
2021/04/06 10:13:18;;;;;;;0.80;0.33;;;4.30;99.90;;;;;;4967321;28;21106;-90
2021/04/06 10:15:44;;;;;;;0.30;0.30;;;4.10;99.90;;;;;;4962776;28;20248;-90
2021/04/06 10:18:12;;;;;;;0.40;0.40;;;3.80;99.90;;;;;;4962747;28;20330;-92
2021/04/06 10:20:50;;;;;;;0.60;0.60;;;4.30;99.90;;;;;;4996299;28;21207;-91
2021/04/06 10:23:31;;;;;;;0.40;0.40;;;4.10;99.90;;;;;;4997645;28;20707;-88
2021/04/06 10:25:58;;;;;;;1.80;0.50;;;4.60;99.90;;;;;;4977648;28;20349;-88
2021/04/06 10:28:27;;;;;;;0.40;0.40;;;5.60;99.90;;;;;;4979320;28;20215;-84
2021/04/06 10:31:04;;;;;;;0.97;0.93;;;6.00;99.90;;;;;;4978225;28;20216;-88
2021/04/06 10:33:32;;;;;;;3.40;1.10;;;6.30;99.90;;;;;;4995510;28;20227;-87
2021/04/06 10:36:02;;;;;;;1.03;0.60;;;6.20;99.90;;;;;;4979552;28;20717;-90
2021/04/06 10:38:35;;;;;;;3.50;0.50;;;6.60;99.90;;;;;;4977044;28;20287;-88
2021/04/06 10:41:11;;;;;;;9.10;1.67;;;6.60;99.90;;;;;;4982617;28;20231;-87
2021/04/06 10:43:57;;;;;;;1.13;0.70;;;6.70;99.90;;;;;;4989345;28;20285;-87
2021/04/06 10:46:25;;;;;;;0.97;0.30;;;7.20;99.90;;;;;;4973313;28;20217;-88
2021/04/06 10:49:01;;;;;;;0.30;0.30;;;7.20;99.90;;;;;;4977318;28;20212;-88
2021/04/06 10:51:28;;;;;;;0.27;0.27;;;7.50;99.90;;;;;;4977093;28;20227;-88
2021/04/06 10:53:56;;;;;;;0.70;0.70;;;7.60;99.90;;;;;;4975167;28;20311;-88
2021/04/06 10:56:24;;;;;;;0.70;0.70;;;7.60;99.90;;;;;;4978327;28;20216;-87
2021/04/06 10:59:00;;;;;;;2.87;0.37;;;7.20;99.90;;;;;;4976910;28;20218;-89
2021/04/06 11:01:37;;;;;;;1.77;0.70;;;6.20;99.90;;;;;;4977976;28;20243;-87
2021/04/06 11:04:10;;;;;;;1.90;0.77;;;5.20;99.90;;;;;;4976974;28;20241;-88
2021/04/06 11:06:38;;;;;;;1.37;0.77;;;4.00;99.90;;;;;;4976273;28;20215;-88
2021/04/06 11:09:16;;;;;;;3.37;1.60;;;3.60;99.90;;;;;;4976195;28;20698;-88
2021/04/06 11:11:44;;;;;;;0.63;0.63;;;3.60;99.90;;;;;;4977615;28;20204;-87
2021/04/06 11:14:13;;;;;;;0.57;0.57;;;4.10;99.90;;;;;;4978510;28;20262;-88
2021/04/06 11:16:40;;;;;;;0.40;0.40;;;4.70;99.90;;;;;;4976929;28;20239;-88
2021/04/06 11:19:12;;;;;;;1.90;0.87;;;4.50;99.90;;;;;;4971213;28;20251;-89
2021/04/06 11:21:45;;;;;;;0.50;0.50;;;4.60;99.90;;;;;;4976581;28;20239;-88
2021/04/06 11:24:12;;;;;;;3.07;0.50;;;4.90;99.90;;;;;;4992760;28;20692;-87
2021/04/06 11:26:39;;;;;;;0.50;0.50;;;5.40;99.90;;;;;;4977859;28;20199;-83
2021/04/06 11:29:06;;;;;;;0.40;0.40;;;5.70;99.90;;;;;;4967041;28;20212;-83
2021/04/06 11:31:33;;;;;;;0.93;0.73;;;5.50;99.90;;;;;;4980311;28;20227;-84
2021/04/06 11:33:59;;;;;;;0.80;0.80;;;5.30;99.90;;;;;;4968710;28;20235;-83
2021/04/06 11:36:25;;;;;;;0.30;0.30;;;5.20;99.90;;;;;;4959418;28;20269;-85
2021/04/06 11:38:51;;;;;;;0.40;0.40;;;4.90;99.90;;;;;;4975453;28;20711;-84
2021/04/06 11:41:19;;;;;;;0.40;0.40;;;4.90;99.90;;;;;;4944071;28;20235;-83
2021/04/06 11:43:46;;;;;;;0.50;0.50;;;5.10;99.90;;;;;;4971282;28;20222;-85
2021/04/06 11:46:13;;;;;;;0.30;0.30;;;5.00;99.90;;;;;;4992559;28;20223;-84
2021/04/06 11:48:39;;;;;;;0.30;0.30;;;5.30;99.90;;;;;;4976356;28;20289;-84
2021/04/06 11:51:05;;;;;;;0.73;0.73;;;5.80;99.90;;;;;;4977288;28;20243;-84
2021/04/06 11:53:31;;;;;;;0.33;0.33;;;6.60;99.90;;;;;;4977710;28;20224;-83
2021/04/06 11:55:57;;;;;;;0.30;0.30;;;7.20;99.90;;;;;;4963348;28;20223;-85
2021/04/06 11:58:23;;;;;;;0.20;0.20;;;7.50;99.90;;;;;;4956816;28;20295;-84
2021/04/06 12:00:49;;;;;;;1.60;0.53;;;6.90;99.90;;;;;;4982249;28;20641;-83
2021/04/06 12:03:15;;;;;;;0.60;0.60;;;6.70;99.90;;;;;;4980311;28;20731;-84
2021/04/06 12:05:41;;;;;;;1.40;0.40;;;6.10;99.90;;;;;;4960763;28;20238;-84
2021/04/06 12:08:07;;;;;;;0.53;0.53;;;5.80;99.90;;;;;;4977415;28;20628;-85
2021/04/06 12:10:33;;;;;;;0.50;0.50;;;5.40;99.90;;;;;;4976144;28;20231;-84
2021/04/06 12:12:59;;;;;;;0.30;0.30;;;5.30;99.90;;;;;;4958460;28;20335;-83
2021/04/06 12:15:26;;;;;;;0.30;0.30;;;5.70;99.90;;;;;;4977776;28;20298;-83
2021/04/06 12:17:51;;;;;;;0.40;0.40;;;6.00;99.90;;;;;;4956337;28;20323;-84
2021/04/06 12:20:19;;;;;;;0.20;0.20;;;6.20;99.90;;;;;;4966241;28;21022;-84
2021/04/06 12:22:44;;;;;;;0.40;0.40;;;6.10;99.90;;;;;;4979727;28;20334;-84
2021/04/06 12:25:11;;;;;;;0.37;0.37;;;5.50;99.90;;;;;;4980291;28;20211;-85
2021/04/06 12:27:37;;;;;;;0.30;0.30;;;5.30;99.90;;;;;;4977798;28;20270;-86
2021/04/06 12:30:04;;;;;;;0.67;0.50;;;5.40;99.90;;;;;;4955840;28;20223;-85
2021/04/06 12:32:30;;;;;;;1.27;1.17;;;5.90;99.90;;;;;;4980838;28;20188;-83
2021/04/06 12:34:56;;;;;;;0.53;0.50;;;6.20;99.90;;;;;;4981152;28;20215;-85
2021/04/06 12:37:22;;;;;;;0.53;0.53;;;6.40;99.90;;;;;;4963939;28;20310;-85
2021/04/06 12:39:48;;;;;;;1.40;1.30;;;6.60;99.90;;;;;;4979848;28;20371;-86
2021/04/06 12:42:14;;;;;;;0.70;0.70;;;6.20;99.90;;;;;;4967715;28;20306;-87
2021/04/06 12:44:41;;;;;;;0.40;0.40;;;5.80;99.90;;;;;;4982353;28;20203;-83
2021/04/06 12:47:07;;;;;;;1.10;0.80;;;5.30;99.90;;;;;;4962645;28;20830;-88
2021/04/06 12:49:33;;;;;;;2.63;2.20;;;5.30;99.90;;;;;;4962153;28;20236;-85
2021/04/06 12:51:59;;;;;;;0.73;0.73;;;5.10;99.90;;;;;;4945634;28;20246;-86
2021/04/06 12:54:25;;;;;;;0.43;0.43;;;5.00;99.90;;;;;;4978195;28;20310;-87
2021/04/06 12:56:51;;;;;;;0.40;0.40;;;5.00;99.90;;;;;;4957564;28;20265;-86
2021/04/06 12:59:18;;;;;;;1.23;1.13;;;4.80;99.90;;;;;;4980018;28;20183;-85
2021/04/06 13:01:44;;;;;;;1.27;0.70;;;4.70;99.90;;;;;;4978439;28;20207;-85
2021/04/06 13:04:10;;;;;;;7.30;0.60;;;4.60;99.90;;;;;;4996666;28;20219;-86
2021/04/06 13:06:37;;;;;;;0.23;0.23;;;4.70;99.90;;;;;;4976909;28;20576;-88
2021/04/06 13:09:04;;;;;;;0.80;0.80;;;4.80;99.90;;;;;;4977481;28;20715;-86
2021/04/06 13:11:29;;;;;;;0.20;0.20;;;5.20;99.90;;;;;;4946374;28;20192;-85
2021/04/06 13:13:56;;;;;;;0.37;0.33;;;5.60;99.90;;;;;;4980528;28;20183;-88
2021/04/06 13:16:22;;;;;;;0.40;0.40;;;5.70;99.90;;;;;;4976452;28;20269;-84